• Join FlightAware (Why Join?)
  • Login
  • US Flag 
04:30AM EDT


 

Airport Tracker/Info


-or-


 

Live Flight TrackerFlight Track Log ✈ N501RL ✈ 15-May-2013 ✈ KORF - KMGM

Flight Track Log - Related Links

Times and Time Zones

All times are in EDT time to prevent confusion due to time zone crossing. See the N501RL flight status page for this flight to view local times or setup timezone preferences in your user account.

Time Position Orientation Groundspeed Altitude Reporting Facility
EDT Latitude Longitude Course Direction KTS MPH feet Rate Location/Type
03:04PM 36.8847 -76.2150 210° Southwest 162 186 400  Level Washington Center
03:06PM 36.8322 -76.2536 210° Southwest 192 221 2,900 2,100 Climbing Washington Center
03:06PM 36.8175 -76.2614 203° Southwest 190 219 3,700 2,100 Climbing Washington Center
03:07PM 36.8150 -76.3675 268° West 188 216 7,000 1,980 Climbing Washington Center
03:08PM 36.8086 -76.3908 251° West 198 228 7,700 1,560 Climbing Washington Center
03:08PM 36.7997 -76.4322 255° West 201 231 8,600 1,440 Climbing Washington Center
03:09PM 36.7975 -76.4583 264° West 205 236 9,200 1,500 Climbing Washington Center
03:09PM 36.7911 -76.4997 259° West 208 239 10,000 1,560 Climbing Washington Center
03:10PM 36.7867 -76.5281 259° West 210 242 10,800 1,560 Climbing Washington Center
03:11PM 36.7756 -76.6006 259° West 222 255 12,400 1,560 Climbing Washington Center
03:12PM 36.7644 -76.6731 259° West 222 255 14,000 1,560 Climbing Washington Center
03:13PM 36.7533 -76.7456 259° West 222 255 15,600 1,500 Climbing Washington Center
03:14PM 36.7422 -76.8206 260° West 222 255 17,000 1,320 Climbing Washington Center
03:15PM 36.7311 -76.8981 260° West 222 255 18,300 1,320 Climbing Washington Center
03:16PM 36.7197 -76.9783 260° West 222 255 19,700 1,380 Climbing Washington Center
03:17PM 36.6958 -77.0503 248° West 227 261 21,100 1,320 Climbing Washington Center
03:18PM 36.6636 -77.1247 242° Southwest 237 273 22,400 1,260 Climbing Washington Center
03:19PM 36.6294 -77.1967 239° Southwest 242 278 23,700 780 Climbing Washington Center
03:20PM 36.5928 -77.2736 239° Southwest 252 290 24,000 120 Climbing Washington Center
03:21PM 36.5519 -77.3631 240° Southwest 277 319 24,000 300 Level Washington Center
03:22PM 36.5108 -77.4525 240° Southwest 294 338 24,700 1,380 Climbing Washington Center
03:23PM 36.4742 -77.5344 241° Southwest 289 333 26,800 1,620 Climbing Washington Center
03:24PM 36.4397 -77.6058 239° Southwest 267 307 28,000 960 Climbing Washington Center
03:25PM 36.4072 -77.6722 239° Southwest 255 293 28,800 840 Climbing Washington Center
03:26PM 36.3744 -77.7486 242° Southwest 250 288 29,700 780 Climbing Washington Center
03:27PM 36.3356 -77.8250 238° Southwest 256 295 30,400 780 Climbing Washington Center
03:28PM 36.2986 -77.9011 239° Southwest 256 295 31,300 840 Climbing Washington Center
03:29PM 36.2639 -77.9775 241° Southwest 256 295 32,100 600 Climbing Washington Center
03:30PM 36.2311 -78.0511 241° Southwest 256 295 32,600 540 Climbing Washington Center
03:31PM 36.1917 -78.1297 238° Southwest 256 295 33,200 540 Climbing Washington Center
03:32PM 36.1547 -78.2056 239° Southwest 261 300 33,700 480 Climbing Washington Center
03:33PM 36.1197 -78.2817 240° Southwest 261 300 34,200 480 Climbing Washington Center
03:34PM 36.0803 -78.3600 238° Southwest 266 306 34,700 480 Climbing Washington Center
03:35PM 36.0431 -78.4383 240° Southwest 266 306 35,200 480 Climbing Washington Center
03:36PM 36.0056 -78.5164 239° Southwest 266 306 35,700 360 Climbing Washington Center
03:37PM 35.9683 -78.5922 239° Southwest 266 306 36,000 120 Climbing Washington Center
03:38PM 35.9286 -78.6728 239° Southwest 266 306 36,000  Level Washington Center
03:39PM 35.8889 -78.7558 239° Southwest 271 312 36,000  Level Washington Center
03:40PM 35.8511 -78.8414 241° Southwest 277 319 36,000  Level Washington Center
03:41PM 35.8133 -78.9294 242° Southwest 283 326 36,000  Level Washington Center
03:43PM 35.7322 -79.1194 242° Southwest 304 350 36,000  Level Atlanta Center
03:44PM 35.6942 -79.2086 242° Southwest 304 350 36,000  Level Atlanta Center
03:45PM 35.6561 -79.3003 243° Southwest 299 344 36,000  Level Atlanta Center
03:46PM 35.6175 -79.3867 241° Southwest 299 344 36,000  Level Atlanta Center
03:47PM 35.5792 -79.4758 242° Southwest 299 344 36,000  Level Atlanta Center
03:48PM 35.5406 -79.5622 241° Southwest 299 344 36,000  Level Atlanta Center
03:49PM 35.5022 -79.6536 243° Southwest 299 344 36,000  Level Atlanta Center
03:50PM 35.4636 -79.7422 242° Southwest 299 344 36,000  Level Atlanta Center
03:51PM 35.4250 -79.8311 242° Southwest 299 344 36,000  Level Atlanta Center
03:52PM 35.3864 -79.9222 243° Southwest 304 350 36,000  Level Atlanta Center
03:53PM 35.3417 -80.0186 240° Southwest 304 350 36,000  Level Atlanta Center
03:54PM 35.3050 -80.1119 244° Southwest 298 343 36,000  Level Atlanta Center
03:55PM 35.2639 -80.2003 240° Southwest 298 343 36,000  Level Atlanta Center
03:56PM 35.2269 -80.2886 243° Southwest 301 346 36,000  Level Atlanta Center
03:57PM 35.1839 -80.3794 240° Southwest 307 353 36,000  Level Atlanta Center
03:58PM 35.1447 -80.4700 242° Southwest 307 353 36,000  Level Atlanta Center
03:59PM 35.1078 -80.5581 243° Southwest 307 353 36,000  Level Atlanta Center
04:00PM 35.0683 -80.6458 241° Southwest 301 346 36,000  Level Atlanta Center
04:01PM 35.0331 -80.7258 242° Southwest 301 346 36,000  Level Atlanta Center
04:02PM 34.9917 -80.8139 240° Southwest 301 346 36,000  Level Atlanta Center
04:03PM 34.9522 -80.9067 243° Southwest 301 346 36,000  Level Atlanta Center
04:04PM 34.9128 -80.9967 242° Southwest 301 346 36,000  Level Atlanta Center
04:05PM 34.8711 -81.0869 241° Southwest 301 346 36,000  Level Atlanta Center
04:06PM 34.8275 -81.1869 242° Southwest 301 346 36,000  Level Atlanta Center
04:07PM 34.7858 -81.2769 241° Southwest 306 352 36,000  Level Atlanta Center
04:08PM 34.7461 -81.3719 243° Southwest 317 365 36,000  Level Atlanta Center
04:09PM 34.7044 -81.4642 241° Southwest 317 365 36,000  Level Atlanta Center
04:10PM 34.6622 -81.5539 240° Southwest 312 359 36,000  Level Atlanta Center
04:11PM 34.6222 -81.6408 241° Southwest 306 352 36,000  Level Atlanta Center
04:12PM 34.5803 -81.7303 240° Southwest 306 352 36,000  Level Atlanta Center
04:13PM 34.5400 -81.8172 241° Southwest 306 352 36,000  Level Atlanta Center
04:14PM 34.4978 -81.9089 241° Southwest 306 352 36,000  Level Atlanta Center
04:15PM 34.4578 -81.9981 241° Southwest 311 358 36,000  Level Atlanta Center
04:16PM 34.4175 -82.0872 241° Southwest 311 358 36,000  Level Atlanta Center
04:17PM 34.3769 -82.1739 240° Southwest 311 358 36,000  Level Atlanta Center
04:18PM 34.3367 -82.2628 241° Southwest 311 358 36,000  Level Atlanta Center
04:19PM 34.2939 -82.3517 240° Southwest 311 358 36,000  Level Atlanta Center
04:20PM 34.2556 -82.4378 242° Southwest 311 358 36,000  Level Atlanta Center
04:21PM 34.2128 -82.5267 240° Southwest 311 358 36,000  Level Atlanta Center
04:22PM 34.1742 -82.6078 240° Southwest 311 358 36,000  Level Atlanta Center
04:23PM 34.1333 -82.6936 240° Southwest 311 358 36,000  Level Atlanta Center
04:24PM 34.0925 -82.7844 242° Southwest 311 358 36,000  Level Atlanta Center
04:25PM 34.0456 -82.8781 239° Southwest 311 358 36,000  Level Atlanta Center
04:26PM 34.0067 -82.9664 242° Southwest 311 358 36,000  Level Atlanta Center
04:27PM 33.9656 -83.0494 239° Southwest 311 358 36,000  Level Atlanta Center
04:28PM 33.9267 -83.1375 242° Southwest 305 351 36,000  Level Atlanta Center
04:29PM 33.8833 -83.2206 238° Southwest 305 351 36,000  Level Atlanta Center
04:30PM 33.8422 -83.3086 241° Southwest 300 345 36,000 -420 Level Atlanta Center
04:31PM 33.7989 -83.3989 240° Southwest 300 345 35,200 -600 Descending Atlanta Center
04:32PM 33.7575 -83.4892 241° Southwest 313 360 34,800 -480 Descending Atlanta Center
04:33PM 33.7161 -83.5717 239° Southwest 318 366 34,300 -540 Descending Atlanta Center
04:34PM 33.6725 -83.6619 240° Southwest 318 366 33,800 -540 Descending Atlanta Center
04:35PM 33.6269 -83.7544 239° Southwest 318 366 33,300 -540 Descending Atlanta Center
04:36PM 33.5833 -83.8467 240° Southwest 318 366 32,800 -600 Descending Atlanta Center
04:37PM 33.5394 -83.9367 240° Southwest 311 358 32,200 -660 Descending Atlanta Center
04:38PM 33.4936 -84.0289 239° Southwest 316 364 31,500 -1,080 Descending Atlanta Center
04:39PM 33.4436 -84.1333 240° Southwest 323 372 30,100 -1,320 Descending Atlanta Center
04:40PM 33.3933 -84.2303 238° Southwest 336 387 28,900 -1,200 Descending Atlanta Center
04:41PM 33.3472 -84.3322 242° Southwest 346 398 27,700 -1,020 Descending Atlanta Center
04:42PM 33.2969 -84.4314 239° Southwest 352 405 26,900 -840 Descending Atlanta Center
04:43PM 33.2506 -84.5281 240° Southwest 352 405 26,100 -480 Descending Atlanta Center
04:44PM 33.2042 -84.6247 240° Southwest 352 405 26,000 -60 Descending Atlanta Center
04:45PM 33.1578 -84.7064 236° Southwest 340 391 26,000  Level Atlanta Center
04:46PM 33.1011 -84.7828 228° Southwest 323 372 26,000  Level Atlanta Center
04:47PM 33.0422 -84.8592 227° Southwest 318 366 26,000  Level Atlanta Center
04:48PM 32.9853 -84.9353 228° Southwest 312 359 26,000 -420 Level Atlanta Center
04:49PM 32.9264 -85.0139 228° Southwest 319 367 25,200 -960 Descending Atlanta Center
04:50PM 32.8608 -85.0947 226° Southwest 329 379 24,100 -1,140 Descending Atlanta Center
04:51PM 32.7953 -85.1831 229° Southwest 334 384 23,000 -1,320 Descending Atlanta Center
04:52PM 32.7528 -85.2811 243° Southwest 334 384 21,500 -1,680 Descending Atlanta Center
04:53PM 32.7161 -85.3819 247° West 334 384 19,700 -1,860 Descending Atlanta Center
04:54PM 32.6733 -85.4825 243° Southwest 334 384 17,800 -1,860 Descending Atlanta Center
04:55PM 32.6367 -85.5806 246° West 340 391 16,000 -2,100 Descending Atlanta Center
04:56PM 32.5978 -85.6711 243° Southwest 327 376 13,600 -2,280 Descending Atlanta Center
04:57PM 32.5611 -85.7617 244° Southwest 316 364 11,500 -1,560 Descending Atlanta Center
04:58PM 32.5286 -85.8397 244° Southwest 294 338 10,500 -1,320 Descending Atlanta Center
04:59PM 32.4983 -85.9131 244° Southwest 271 312 8,900 -1,800 Descending Atlanta Center
05:00PM 32.4703 -85.9814 244° Southwest 248 285 7,000 -1,980 Descending Atlanta Center
05:01PM 32.4319 -86.0322 228° Southwest 228 262 5,000 -1,500 Descending Atlanta Center
05:02PM 32.3772 -86.0606 204° Southwest 212 244 4,000 -540 Descending Atlanta Center
05:03PM 32.3369 -86.0842 206° Southwest 189 217 4,000  Level Atlanta Center
05:05PM 32.3212 -86.2191 248° West  Level Estimated
05:12PM 32.3000 -86.3833 239° Southwest  Level FlightAware Approximate
05:13PM 32.3006 -86.3940 239° Southwest  Level Estimated
05:14PM 32.3006 -86.3940 239° Southwest  Level Estimated
05:15PM 32.3006 -86.3940 239° Southwest  Level Estimated
05:16PM 32.3006 -86.3940 239° Southwest  Level Estimated
05:17PM 32.3006 -86.3940 239° Southwest  Level Estimated